sensor_id;sensor_type;location;lat;lon;timestamp;P1;durP1;ratioP1;P2;durP2;ratioP2
46288;SDS011;63105;46.158;14.604;2023-09-19T00:00:36;6.97;;;5.05;;
46288;SDS011;63105;46.158;14.604;2023-09-19T00:03:01;8.32;;;5.55;;
46288;SDS011;63105;46.158;14.604;2023-09-19T00:05:27;6.68;;;5.35;;
46288;SDS011;63105;46.158;14.604;2023-09-19T00:07:53;7.45;;;5.40;;
46288;SDS011;63105;46.158;14.604;2023-09-19T00:10:19;6.95;;;5.13;;
46288;SDS011;63105;46.158;14.604;2023-09-19T00:12:44;6.65;;;5.22;;
46288;SDS011;63105;46.158;14.604;2023-09-19T00:15:09;7.57;;;5.60;;
46288;SDS011;63105;46.158;14.604;2023-09-19T00:17:36;8.68;;;5.20;;
46288;SDS011;63105;46.158;14.604;2023-09-19T00:20:02;17.92;;;5.78;;
46288;SDS011;63105;46.158;14.604;2023-09-19T00:22:32;8.48;;;4.80;;
46288;SDS011;63105;46.158;14.604;2023-09-19T00:24:57;6.18;;;4.60;;
46288;SDS011;63105;46.158;14.604;2023-09-19T00:27:22;7.50;;;4.60;;
46288;SDS011;63105;46.158;14.604;2023-09-19T00:29:47;6.73;;;4.80;;
46288;SDS011;63105;46.158;14.604;2023-09-19T00:32:13;9.50;;;5.20;;
46288;SDS011;63105;46.158;14.604;2023-09-19T00:34:38;7.97;;;4.68;;
46288;SDS011;63105;46.158;14.604;2023-09-19T00:37:03;6.00;;;5.10;;
46288;SDS011;63105;46.158;14.604;2023-09-19T00:39:28;7.87;;;4.47;;
46288;SDS011;63105;46.158;14.604;2023-09-19T00:41:56;6.03;;;4.40;;
46288;SDS011;63105;46.158;14.604;2023-09-19T00:44:21;7.65;;;4.57;;
46288;SDS011;63105;46.158;14.604;2023-09-19T00:46:48;6.60;;;4.40;;
46288;SDS011;63105;46.158;14.604;2023-09-19T00:49:15;7.25;;;4.35;;
46288;SDS011;63105;46.158;14.604;2023-09-19T00:51:41;6.75;;;4.40;;
46288;SDS011;63105;46.158;14.604;2023-09-19T00:54:11;5.97;;;4.53;;
46288;SDS011;63105;46.158;14.604;2023-09-19T00:56:38;6.40;;;4.40;;
46288;SDS011;63105;46.158;14.604;2023-09-19T00:59:05;6.65;;;4.53;;
46288;SDS011;63105;46.158;14.604;2023-09-19T01:01:30;6.70;;;4.80;;
46288;SDS011;63105;46.158;14.604;2023-09-19T01:03:56;7.78;;;5.13;;
46288;SDS011;63105;46.158;14.604;2023-09-19T01:06:22;7.72;;;5.18;;
46288;SDS011;63105;46.158;14.604;2023-09-19T01:08:47;8.05;;;4.90;;
46288;SDS011;63105;46.158;14.604;2023-09-19T01:11:26;7.67;;;4.70;;
46288;SDS011;63105;46.158;14.604;2023-09-19T01:13:58;6.65;;;4.55;;
46288;SDS011;63105;46.158;14.604;2023-09-19T01:16:45;5.68;;;4.15;;
46288;SDS011;63105;46.158;14.604;2023-09-19T01:21:57;6.85;;;4.57;;
46288;SDS011;63105;46.158;14.604;2023-09-19T01:30:07;5.90;;;4.35;;
46288;SDS011;63105;46.158;14.604;2023-09-19T01:32:33;6.05;;;4.22;;
46288;SDS011;63105;46.158;14.604;2023-09-19T01:34:58;6.80;;;4.32;;
46288;SDS011;63105;46.158;14.604;2023-09-19T01:37:29;8.40;;;4.70;;
46288;SDS011;63105;46.158;14.604;2023-09-19T01:40:06;6.95;;;4.65;;
46288;SDS011;63105;46.158;14.604;2023-09-19T01:42:56;6.40;;;4.32;;
46288;SDS011;63105;46.158;14.604;2023-09-19T01:47:51;5.10;;;3.90;;
46288;SDS011;63105;46.158;14.604;2023-09-19T01:52:46;6.35;;;4.25;;
46288;SDS011;63105;46.158;14.604;2023-09-19T01:55:13;6.72;;;4.15;;
46288;SDS011;63105;46.158;14.604;2023-09-19T01:57:54;6.63;;;4.20;;
46288;SDS011;63105;46.158;14.604;2023-09-19T02:00:23;8.40;;;4.68;;
46288;SDS011;63105;46.158;14.604;2023-09-19T02:02:49;6.93;;;4.38;;
46288;SDS011;63105;46.158;14.604;2023-09-19T02:05:24;6.72;;;4.60;;
46288;SDS011;63105;46.158;14.604;2023-09-19T02:10:15;6.57;;;4.70;;
46288;SDS011;63105;46.158;14.604;2023-09-19T02:12:42;7.60;;;4.60;;
46288;SDS011;63105;46.158;14.604;2023-09-19T02:15:07;6.05;;;4.10;;
46288;SDS011;63105;46.158;14.604;2023-09-19T02:17:33;8.13;;;4.32;;
46288;SDS011;63105;46.158;14.604;2023-09-19T02:19:58;6.00;;;4.13;;
46288;SDS011;63105;46.158;14.604;2023-09-19T02:22:25;7.28;;;4.47;;
46288;SDS011;63105;46.158;14.604;2023-09-19T02:24:50;5.85;;;4.35;;
46288;SDS011;63105;46.158;14.604;2023-09-19T02:27:16;6.47;;;4.45;;
46288;SDS011;63105;46.158;14.604;2023-09-19T02:29:42;6.00;;;4.20;;
46288;SDS011;63105;46.158;14.604;2023-09-19T02:32:08;5.30;;;3.58;;
46288;SDS011;63105;46.158;14.604;2023-09-19T02:34:34;6.22;;;4.20;;
46288;SDS011;63105;46.158;14.604;2023-09-19T02:37:01;6.15;;;4.30;;
46288;SDS011;63105;46.158;14.604;2023-09-19T02:39:26;6.55;;;4.72;;
46288;SDS011;63105;46.158;14.604;2023-09-19T02:41:53;6.10;;;4.70;;
46288;SDS011;63105;46.158;14.604;2023-09-19T02:44:18;7.20;;;4.57;;
46288;SDS011;63105;46.158;14.604;2023-09-19T02:46:45;6.15;;;4.03;;
46288;SDS011;63105;46.158;14.604;2023-09-19T02:49:10;6.68;;;3.97;;
46288;SDS011;63105;46.158;14.604;2023-09-19T02:51:35;6.03;;;4.00;;
46288;SDS011;63105;46.158;14.604;2023-09-19T02:54:00;5.63;;;3.83;;
46288;SDS011;63105;46.158;14.604;2023-09-19T02:56:27;6.85;;;4.40;;
46288;SDS011;63105;46.158;14.604;2023-09-19T02:58:53;6.93;;;4.75;;
46288;SDS011;63105;46.158;14.604;2023-09-19T03:01:18;7.80;;;5.28;;
46288;SDS011;63105;46.158;14.604;2023-09-19T03:03:43;7.72;;;5.40;;
46288;SDS011;63105;46.158;14.604;2023-09-19T03:06:10;8.90;;;6.05;;
46288;SDS011;63105;46.158;14.604;2023-09-19T03:08:35;9.27;;;6.60;;
46288;SDS011;63105;46.158;14.604;2023-09-19T03:11:04;11.32;;;7.78;;
46288;SDS011;63105;46.158;14.604;2023-09-19T03:13:36;9.73;;;6.63;;
46288;SDS011;63105;46.158;14.604;2023-09-19T03:16:03;10.98;;;7.43;;
46288;SDS011;63105;46.158;14.604;2023-09-19T03:18:30;8.57;;;5.80;;
46288;SDS011;63105;46.158;14.604;2023-09-19T03:20:57;8.52;;;6.07;;
46288;SDS011;63105;46.158;14.604;2023-09-19T03:23:22;7.07;;;5.38;;
46288;SDS011;63105;46.158;14.604;2023-09-19T03:25:47;7.85;;;4.68;;
46288;SDS011;63105;46.158;14.604;2023-09-19T03:28:13;8.15;;;4.97;;
46288;SDS011;63105;46.158;14.604;2023-09-19T03:30:40;6.50;;;4.70;;
46288;SDS011;63105;46.158;14.604;2023-09-19T03:33:05;8.65;;;5.10;;
46288;SDS011;63105;46.158;14.604;2023-09-19T03:35:31;7.00;;;4.70;;
46288;SDS011;63105;46.158;14.604;2023-09-19T03:37:56;6.47;;;4.38;;
46288;SDS011;63105;46.158;14.604;2023-09-19T03:40:21;5.45;;;4.20;;
46288;SDS011;63105;46.158;14.604;2023-09-19T03:42:48;6.45;;;3.38;;
46288;SDS011;63105;46.158;14.604;2023-09-19T03:45:13;6.28;;;3.80;;
46288;SDS011;63105;46.158;14.604;2023-09-19T03:47:41;5.18;;;3.20;;
46288;SDS011;63105;46.158;14.604;2023-09-19T03:50:06;4.57;;;2.80;;
46288;SDS011;63105;46.158;14.604;2023-09-19T03:52:40;4.47;;;2.80;;
46288;SDS011;63105;46.158;14.604;2023-09-19T03:55:05;4.85;;;2.30;;
46288;SDS011;63105;46.158;14.604;2023-09-19T03:57:31;4.72;;;2.50;;
46288;SDS011;63105;46.158;14.604;2023-09-19T03:59:56;4.97;;;2.47;;
46288;SDS011;63105;46.158;14.604;2023-09-19T04:02:21;4.07;;;1.90;;
46288;SDS011;63105;46.158;14.604;2023-09-19T04:04:50;4.85;;;2.05;;
46288;SDS011;63105;46.158;14.604;2023-09-19T04:07:16;4.00;;;1.92;;
46288;SDS011;63105;46.158;14.604;2023-09-19T04:09:41;3.85;;;1.70;;
46288;SDS011;63105;46.158;14.604;2023-09-19T04:12:07;3.15;;;1.60;;
46288;SDS011;63105;46.158;14.604;2023-09-19T04:14:33;3.88;;;1.52;;
46288;SDS011;63105;46.158;14.604;2023-09-19T04:16:59;2.08;;;1.20;;
46288;SDS011;63105;46.158;14.604;2023-09-19T04:19:25;2.53;;;1.30;;
46288;SDS011;63105;46.158;14.604;2023-09-19T04:21:50;3.10;;;1.20;;
46288;SDS011;63105;46.158;14.604;2023-09-19T04:24:15;4.50;;;1.70;;
46288;SDS011;63105;46.158;14.604;2023-09-19T04:26:41;4.60;;;1.48;;
46288;SDS011;63105;46.158;14.604;2023-09-19T04:29:07;2.53;;;1.02;;
46288;SDS011;63105;46.158;14.604;2023-09-19T04:31:36;3.28;;;1.15;;
46288;SDS011;63105;46.158;14.604;2023-09-19T04:34:02;3.33;;;1.55;;
46288;SDS011;63105;46.158;14.604;2023-09-19T04:36:28;2.22;;;1.00;;
46288;SDS011;63105;46.158;14.604;2023-09-19T04:38:54;2.60;;;0.88;;
46288;SDS011;63105;46.158;14.604;2023-09-19T04:41:19;2.93;;;0.93;;
46288;SDS011;63105;46.158;14.604;2023-09-19T04:43:44;2.72;;;1.00;;
46288;SDS011;63105;46.158;14.604;2023-09-19T04:46:10;2.33;;;1.20;;
46288;SDS011;63105;46.158;14.604;2023-09-19T04:48:35;2.92;;;0.90;;
46288;SDS011;63105;46.158;14.604;2023-09-19T04:51:02;1.75;;;0.80;;
46288;SDS011;63105;46.158;14.604;2023-09-19T04:53:28;2.15;;;0.80;;
46288;SDS011;63105;46.158;14.604;2023-09-19T04:55:53;1.80;;;0.80;;
46288;SDS011;63105;46.158;14.604;2023-09-19T04:58:21;2.63;;;0.95;;
46288;SDS011;63105;46.158;14.604;2023-09-19T05:00:46;2.85;;;0.80;;
46288;SDS011;63105;46.158;14.604;2023-09-19T05:03:11;1.38;;;0.50;;
46288;SDS011;63105;46.158;14.604;2023-09-19T05:05:36;2.00;;;0.70;;
46288;SDS011;63105;46.158;14.604;2023-09-19T05:08:03;2.20;;;0.88;;
46288;SDS011;63105;46.158;14.604;2023-09-19T05:10:30;1.70;;;0.80;;
46288;SDS011;63105;46.158;14.604;2023-09-19T05:12:55;2.30;;;0.77;;
46288;SDS011;63105;46.158;14.604;2023-09-19T05:15:20;2.83;;;0.88;;
46288;SDS011;63105;46.158;14.604;2023-09-19T05:17:52;1.73;;;0.70;;
46288;SDS011;63105;46.158;14.604;2023-09-19T05:20:19;1.88;;;0.50;;
46288;SDS011;63105;46.158;14.604;2023-09-19T05:23:01;1.35;;;0.60;;
46288;SDS011;63105;46.158;14.604;2023-09-19T05:25:27;1.85;;;0.77;;
46288;SDS011;63105;46.158;14.604;2023-09-19T05:27:54;2.17;;;0.80;;
46288;SDS011;63105;46.158;14.604;2023-09-19T05:30:20;1.70;;;0.70;;
46288;SDS011;63105;46.158;14.604;2023-09-19T05:32:45;1.00;;;0.40;;
46288;SDS011;63105;46.158;14.604;2023-09-19T05:35:10;2.00;;;0.70;;
46288;SDS011;63105;46.158;14.604;2023-09-19T05:37:38;1.30;;;0.60;;
46288;SDS011;63105;46.158;14.604;2023-09-19T05:40:03;1.10;;;0.47;;
46288;SDS011;63105;46.158;14.604;2023-09-19T05:42:32;1.10;;;0.52;;
46288;SDS011;63105;46.158;14.604;2023-09-19T05:44:57;1.67;;;0.60;;
46288;SDS011;63105;46.158;14.604;2023-09-19T05:47:23;1.67;;;0.63;;
46288;SDS011;63105;46.158;14.604;2023-09-19T05:49:50;1.73;;;0.60;;
46288;SDS011;63105;46.158;14.604;2023-09-19T05:52:15;2.78;;;0.60;;
46288;SDS011;63105;46.158;14.604;2023-09-19T05:54:42;1.17;;;0.60;;
46288;SDS011;63105;46.158;14.604;2023-09-19T05:57:08;1.45;;;0.60;;
46288;SDS011;63105;46.158;14.604;2023-09-19T05:59:33;1.23;;;0.50;;
46288;SDS011;63105;46.158;14.604;2023-09-19T06:01:59;2.03;;;0.70;;
46288;SDS011;63105;46.158;14.604;2023-09-19T06:04:24;2.67;;;0.60;;
46288;SDS011;63105;46.158;14.604;2023-09-19T06:06:50;1.50;;;0.45;;
46288;SDS011;63105;46.158;14.604;2023-09-19T06:09:16;1.02;;;0.50;;
46288;SDS011;63105;46.158;14.604;2023-09-19T06:11:41;1.33;;;0.52;;
46288;SDS011;63105;46.158;14.604;2023-09-19T06:14:07;1.58;;;0.60;;
46288;SDS011;63105;46.158;14.604;2023-09-19T06:16:32;1.70;;;0.50;;
46288;SDS011;63105;46.158;14.604;2023-09-19T06:18:57;2.23;;;0.67;;
46288;SDS011;63105;46.158;14.604;2023-09-19T06:21:24;1.85;;;0.70;;
46288;SDS011;63105;46.158;14.604;2023-09-19T06:23:50;1.63;;;0.55;;
46288;SDS011;63105;46.158;14.604;2023-09-19T06:26:15;1.45;;;0.60;;
46288;SDS011;63105;46.158;14.604;2023-09-19T06:28:40;1.67;;;0.70;;
46288;SDS011;63105;46.158;14.604;2023-09-19T06:31:07;1.83;;;0.70;;
46288;SDS011;63105;46.158;14.604;2023-09-19T06:33:35;1.40;;;0.60;;
46288;SDS011;63105;46.158;14.604;2023-09-19T06:36:03;2.92;;;0.50;;
46288;SDS011;63105;46.158;14.604;2023-09-19T06:38:29;3.30;;;0.70;;
46288;SDS011;63105;46.158;14.604;2023-09-19T06:40:55;1.75;;;0.60;;
46288;SDS011;63105;46.158;14.604;2023-09-19T06:43:20;2.08;;;0.60;;
46288;SDS011;63105;46.158;14.604;2023-09-19T06:45:45;1.55;;;0.60;;
46288;SDS011;63105;46.158;14.604;2023-09-19T06:48:11;0.97;;;0.40;;
46288;SDS011;63105;46.158;14.604;2023-09-19T06:50:37;1.15;;;0.50;;
46288;SDS011;63105;46.158;14.604;2023-09-19T06:53:03;0.90;;;0.40;;
46288;SDS011;63105;46.158;14.604;2023-09-19T06:55:28;1.23;;;0.50;;
46288;SDS011;63105;46.158;14.604;2023-09-19T06:57:56;1.10;;;0.45;;
46288;SDS011;63105;46.158;14.604;2023-09-19T07:00:21;0.75;;;0.40;;
46288;SDS011;63105;46.158;14.604;2023-09-19T07:03:04;1.38;;;0.40;;
46288;SDS011;63105;46.158;14.604;2023-09-19T07:05:33;0.98;;;0.40;;
46288;SDS011;63105;46.158;14.604;2023-09-19T07:08:01;1.08;;;0.50;;
46288;SDS011;63105;46.158;14.604;2023-09-19T07:10:26;1.70;;;0.50;;
46288;SDS011;63105;46.158;14.604;2023-09-19T07:12:58;0.98;;;0.40;;
46288;SDS011;63105;46.158;14.604;2023-09-19T07:15:24;1.13;;;0.50;;
46288;SDS011;63105;46.158;14.604;2023-09-19T07:17:50;1.02;;;0.50;;
46288;SDS011;63105;46.158;14.604;2023-09-19T07:20:15;1.15;;;0.45;;
46288;SDS011;63105;46.158;14.604;2023-09-19T07:22:41;1.38;;;0.50;;
46288;SDS011;63105;46.158;14.604;2023-09-19T07:25:06;2.53;;;0.45;;
46288;SDS011;63105;46.158;14.604;2023-09-19T07:27:32;1.17;;;0.60;;
46288;SDS011;63105;46.158;14.604;2023-09-19T07:29:57;2.17;;;0.60;;
46288;SDS011;63105;46.158;14.604;2023-09-19T07:32:23;1.38;;;0.68;;
46288;SDS011;63105;46.158;14.604;2023-09-19T07:34:49;1.95;;;0.68;;
46288;SDS011;63105;46.158;14.604;2023-09-19T07:37:14;1.67;;;0.57;;
46288;SDS011;63105;46.158;14.604;2023-09-19T07:39:40;1.83;;;0.60;;
46288;SDS011;63105;46.158;14.604;2023-09-19T07:42:06;1.85;;;0.60;;
46288;SDS011;63105;46.158;14.604;2023-09-19T07:44:32;1.52;;;0.60;;
46288;SDS011;63105;46.158;14.604;2023-09-19T07:46:57;1.70;;;0.60;;
46288;SDS011;63105;46.158;14.604;2023-09-19T07:49:23;1.85;;;0.60;;
46288;SDS011;63105;46.158;14.604;2023-09-19T07:51:48;1.67;;;0.80;;
46288;SDS011;63105;46.158;14.604;2023-09-19T07:54:13;1.77;;;0.70;;
46288;SDS011;63105;46.158;14.604;2023-09-19T07:56:39;2.38;;;0.70;;
46288;SDS011;63105;46.158;14.604;2023-09-19T07:59:04;1.90;;;0.70;;
46288;SDS011;63105;46.158;14.604;2023-09-19T08:01:30;1.67;;;0.80;;
46288;SDS011;63105;46.158;14.604;2023-09-19T08:03:55;1.48;;;0.60;;
46288;SDS011;63105;46.158;14.604;2023-09-19T08:06:20;1.80;;;0.82;;
46288;SDS011;63105;46.158;14.604;2023-09-19T08:08:45;2.72;;;0.60;;
46288;SDS011;63105;46.158;14.604;2023-09-19T08:11:11;1.52;;;0.60;;
46288;SDS011;63105;46.158;14.604;2023-09-19T08:13:38;2.45;;;0.80;;
46288;SDS011;63105;46.158;14.604;2023-09-19T08:16:08;1.60;;;0.70;;
46288;SDS011;63105;46.158;14.604;2023-09-19T08:18:33;1.20;;;0.60;;
46288;SDS011;63105;46.158;14.604;2023-09-19T08:20:58;2.23;;;0.80;;
46288;SDS011;63105;46.158;14.604;2023-09-19T08:23:25;2.97;;;0.93;;
46288;SDS011;63105;46.158;14.604;2023-09-19T08:25:55;1.23;;;0.70;;
46288;SDS011;63105;46.158;14.604;2023-09-19T08:28:20;1.40;;;0.60;;
46288;SDS011;63105;46.158;14.604;2023-09-19T08:30:49;1.55;;;0.63;;
46288;SDS011;63105;46.158;14.604;2023-09-19T08:33:14;1.77;;;0.73;;
46288;SDS011;63105;46.158;14.604;2023-09-19T08:35:42;1.77;;;0.70;;
46288;SDS011;63105;46.158;14.604;2023-09-19T08:38:09;1.90;;;0.73;;
46288;SDS011;63105;46.158;14.604;2023-09-19T08:40:37;1.95;;;0.68;;
46288;SDS011;63105;46.158;14.604;2023-09-19T08:43:04;1.85;;;0.80;;
46288;SDS011;63105;46.158;14.604;2023-09-19T08:45:32;2.53;;;0.70;;
46288;SDS011;63105;46.158;14.604;2023-09-19T08:51:02;2.28;;;0.90;;
46288;SDS011;63105;46.158;14.604;2023-09-19T08:56:00;1.70;;;0.73;;
46288;SDS011;63105;46.158;14.604;2023-09-19T08:58:27;2.85;;;0.90;;
46288;SDS011;63105;46.158;14.604;2023-09-19T09:00:56;1.52;;;0.70;;
46288;SDS011;63105;46.158;14.604;2023-09-19T09:03:23;2.20;;;0.77;;
46288;SDS011;63105;46.158;14.604;2023-09-19T09:05:49;2.10;;;0.75;;
46288;SDS011;63105;46.158;14.604;2023-09-19T09:08:15;1.85;;;0.90;;
46288;SDS011;63105;46.158;14.604;2023-09-19T09:10:43;1.85;;;0.90;;
46288;SDS011;63105;46.158;14.604;2023-09-19T09:13:09;1.80;;;0.90;;
46288;SDS011;63105;46.158;14.604;2023-09-19T09:15:37;2.38;;;0.90;;
46288;SDS011;63105;46.158;14.604;2023-09-19T09:18:03;2.90;;;1.17;;
46288;SDS011;63105;46.158;14.604;2023-09-19T09:20:29;2.67;;;1.30;;
46288;SDS011;63105;46.158;14.604;2023-09-19T09:22:55;2.17;;;0.98;;
46288;SDS011;63105;46.158;14.604;2023-09-19T09:25:21;2.35;;;0.90;;
46288;SDS011;63105;46.158;14.604;2023-09-19T09:27:59;2.55;;;1.00;;
46288;SDS011;63105;46.158;14.604;2023-09-19T09:30:34;2.47;;;0.98;;
46288;SDS011;63105;46.158;14.604;2023-09-19T09:33:09;2.83;;;1.00;;
46288;SDS011;63105;46.158;14.604;2023-09-19T09:35:36;2.05;;;0.93;;
46288;SDS011;63105;46.158;14.604;2023-09-19T09:38:01;1.95;;;0.80;;
46288;SDS011;63105;46.158;14.604;2023-09-19T09:40:45;2.65;;;0.80;;
46288;SDS011;63105;46.158;14.604;2023-09-19T09:43:45;1.83;;;0.80;;
46288;SDS011;63105;46.158;14.604;2023-09-19T09:46:11;2.17;;;0.90;;
46288;SDS011;63105;46.158;14.604;2023-09-19T09:48:46;2.80;;;1.08;;
46288;SDS011;63105;46.158;14.604;2023-09-19T09:51:32;2.50;;;1.00;;
46288;SDS011;63105;46.158;14.604;2023-09-19T09:54:17;2.53;;;0.82;;
46288;SDS011;63105;46.158;14.604;2023-09-19T09:59:19;1.52;;;0.70;;
46288;SDS011;63105;46.158;14.604;2023-09-19T10:01:48;2.78;;;1.00;;
46288;SDS011;63105;46.158;14.604;2023-09-19T10:04:26;2.88;;;1.00;;
46288;SDS011;63105;46.158;14.604;2023-09-19T10:06:54;1.55;;;0.77;;
46288;SDS011;63105;46.158;14.604;2023-09-19T10:09:19;2.80;;;0.90;;
46288;SDS011;63105;46.158;14.604;2023-09-19T10:12:05;2.00;;;0.90;;
46288;SDS011;63105;46.158;14.604;2023-09-19T10:14:31;2.60;;;0.80;;
46288;SDS011;63105;46.158;14.604;2023-09-19T10:16:58;2.00;;;0.80;;
46288;SDS011;63105;46.158;14.604;2023-09-19T10:19:40;1.80;;;0.70;;
46288;SDS011;63105;46.158;14.604;2023-09-19T10:22:11;2.25;;;0.80;;
46288;SDS011;63105;46.158;14.604;2023-09-19T10:24:39;2.20;;;0.90;;
46288;SDS011;63105;46.158;14.604;2023-09-19T10:27:06;2.70;;;0.80;;
46288;SDS011;63105;46.158;14.604;2023-09-19T10:29:33;2.58;;;1.33;;
46288;SDS011;63105;46.158;14.604;2023-09-19T10:32:01;2.00;;;0.80;;
46288;SDS011;63105;46.158;14.604;2023-09-19T10:34:29;2.30;;;0.90;;
46288;SDS011;63105;46.158;14.604;2023-09-19T10:36:55;1.77;;;0.80;;
46288;SDS011;63105;46.158;14.604;2023-09-19T10:39:20;2.03;;;0.88;;
46288;SDS011;63105;46.158;14.604;2023-09-19T10:41:53;2.15;;;0.95;;
46288;SDS011;63105;46.158;14.604;2023-09-19T10:44:22;3.65;;;1.23;;
46288;SDS011;63105;46.158;14.604;2023-09-19T10:46:48;2.90;;;1.20;;
46288;SDS011;63105;46.158;14.604;2023-09-19T10:49:14;2.97;;;1.10;;
46288;SDS011;63105;46.158;14.604;2023-09-19T10:51:39;2.38;;;0.90;;
46288;SDS011;63105;46.158;14.604;2023-09-19T10:54:16;2.33;;;0.90;;
46288;SDS011;63105;46.158;14.604;2023-09-19T10:56:43;2.25;;;1.00;;
46288;SDS011;63105;46.158;14.604;2023-09-19T10:59:12;2.65;;;1.10;;
46288;SDS011;63105;46.158;14.604;2023-09-19T11:01:43;2.22;;;1.00;;
46288;SDS011;63105;46.158;14.604;2023-09-19T11:04:34;4.55;;;1.10;;
46288;SDS011;63105;46.158;14.604;2023-09-19T11:12:58;2.92;;;1.00;;
46288;SDS011;63105;46.158;14.604;2023-09-19T11:15:01;2.15;;;0.70;;
46288;SDS011;63105;46.158;14.604;2023-09-19T11:17:33;1.98;;;0.98;;
46288;SDS011;63105;46.158;14.604;2023-09-19T11:30:44;2.58;;;1.05;;
46288;SDS011;63105;46.158;14.604;2023-09-19T11:33:23;2.15;;;1.00;;
46288;SDS011;63105;46.158;14.604;2023-09-19T11:43:53;2.80;;;1.17;;
46288;SDS011;63105;46.158;14.604;2023-09-19T11:46:24;3.03;;;1.17;;
46288;SDS011;63105;46.158;14.604;2023-09-19T11:48:49;4.63;;;1.33;;
46288;SDS011;63105;46.158;14.604;2023-09-19T11:51:24;3.38;;;1.10;;
46288;SDS011;63105;46.158;14.604;2023-09-19T11:53:58;3.38;;;1.00;;
46288;SDS011;63105;46.158;14.604;2023-09-19T11:56:27;2.42;;;0.93;;
46288;SDS011;63105;46.158;14.604;2023-09-19T11:58:53;3.42;;;1.08;;
46288;SDS011;63105;46.158;14.604;2023-09-19T12:01:21;2.50;;;1.10;;
46288;SDS011;63105;46.158;14.604;2023-09-19T12:03:47;2.22;;;1.00;;
46288;SDS011;63105;46.158;14.604;2023-09-19T12:06:17;2.40;;;0.93;;
46288;SDS011;63105;46.158;14.604;2023-09-19T12:08:43;2.80;;;1.20;;
46288;SDS011;63105;46.158;14.604;2023-09-19T12:11:15;2.03;;;0.90;;
46288;SDS011;63105;46.158;14.604;2023-09-19T12:13:44;2.95;;;1.42;;
46288;SDS011;63105;46.158;14.604;2023-09-19T12:16:16;2.65;;;0.98;;
46288;SDS011;63105;46.158;14.604;2023-09-19T12:18:41;2.78;;;0.90;;
46288;SDS011;63105;46.158;14.604;2023-09-19T12:21:27;2.70;;;1.10;;
46288;SDS011;63105;46.158;14.604;2023-09-19T12:26:26;2.78;;;0.95;;
46288;SDS011;63105;46.158;14.604;2023-09-19T12:28:51;2.25;;;1.00;;
46288;SDS011;63105;46.158;14.604;2023-09-19T12:31:18;2.63;;;1.00;;
46288;SDS011;63105;46.158;14.604;2023-09-19T12:33:44;2.33;;;1.00;;
46288;SDS011;63105;46.158;14.604;2023-09-19T12:36:22;4.78;;;1.10;;
46288;SDS011;63105;46.158;14.604;2023-09-19T12:38:50;2.70;;;1.20;;
46288;SDS011;63105;46.158;14.604;2023-09-19T12:41:16;2.60;;;0.82;;
46288;SDS011;63105;46.158;14.604;2023-09-19T12:43:42;2.08;;;1.02;;
46288;SDS011;63105;46.158;14.604;2023-09-19T12:46:08;2.25;;;1.00;;
46288;SDS011;63105;46.158;14.604;2023-09-19T12:48:33;1.65;;;0.90;;
46288;SDS011;63105;46.158;14.604;2023-09-19T12:51:09;1.58;;;0.80;;
46288;SDS011;63105;46.158;14.604;2023-09-19T12:56:05;2.30;;;0.80;;
46288;SDS011;63105;46.158;14.604;2023-09-19T12:58:33;2.45;;;1.00;;
46288;SDS011;63105;46.158;14.604;2023-09-19T13:01:00;1.25;;;0.63;;
46288;SDS011;63105;46.158;14.604;2023-09-19T13:03:26;1.92;;;0.75;;
46288;SDS011;63105;46.158;14.604;2023-09-19T13:05:59;1.75;;;0.80;;
46288;SDS011;63105;46.158;14.604;2023-09-19T13:08:29;2.53;;;1.00;;
46288;SDS011;63105;46.158;14.604;2023-09-19T13:11:38;2.13;;;0.90;;
46288;SDS011;63105;46.158;14.604;2023-09-19T13:16:30;1.77;;;0.80;;
46288;SDS011;63105;46.158;14.604;2023-09-19T13:18:56;2.33;;;0.80;;
46288;SDS011;63105;46.158;14.604;2023-09-19T13:21:29;1.88;;;0.80;;
46288;SDS011;63105;46.158;14.604;2023-09-19T13:24:17;2.10;;;0.80;;
46288;SDS011;63105;46.158;14.604;2023-09-19T13:29:08;1.65;;;0.60;;
46288;SDS011;63105;46.158;14.604;2023-09-19T13:31:33;2.27;;;0.90;;
46288;SDS011;63105;46.158;14.604;2023-09-19T13:34:00;1.90;;;0.77;;
46288;SDS011;63105;46.158;14.604;2023-09-19T13:36:25;2.05;;;0.82;;
46288;SDS011;63105;46.158;14.604;2023-09-19T13:38:50;1.50;;;0.70;;
46288;SDS011;63105;46.158;14.604;2023-09-19T13:41:18;2.53;;;0.70;;
46288;SDS011;63105;46.158;14.604;2023-09-19T13:43:43;2.55;;;0.75;;
46288;SDS011;63105;46.158;14.604;2023-09-19T13:46:13;1.67;;;0.80;;
46288;SDS011;63105;46.158;14.604;2023-09-19T13:48:40;2.28;;;0.90;;
46288;SDS011;63105;46.158;14.604;2023-09-19T13:51:06;1.73;;;0.70;;
46288;SDS011;63105;46.158;14.604;2023-09-19T13:53:31;1.87;;;0.80;;
46288;SDS011;63105;46.158;14.604;2023-09-19T13:55:56;2.55;;;0.70;;
46288;SDS011;63105;46.158;14.604;2023-09-19T13:58:21;1.98;;;0.88;;
46288;SDS011;63105;46.158;14.604;2023-09-19T14:00:48;3.90;;;0.80;;
46288;SDS011;63105;46.158;14.604;2023-09-19T14:03:13;1.50;;;0.68;;
46288;SDS011;63105;46.158;14.604;2023-09-19T14:05:39;2.20;;;0.80;;
46288;SDS011;63105;46.158;14.604;2023-09-19T14:08:04;2.47;;;1.00;;
46288;SDS011;63105;46.158;14.604;2023-09-19T14:10:30;2.00;;;0.80;;
46288;SDS011;63105;46.158;14.604;2023-09-19T14:12:56;2.75;;;1.10;;
46288;SDS011;63105;46.158;14.604;2023-09-19T14:15:24;2.63;;;0.90;;
46288;SDS011;63105;46.158;14.604;2023-09-19T14:17:54;1.75;;;0.70;;
46288;SDS011;63105;46.158;14.604;2023-09-19T14:20:21;1.27;;;0.70;;
46288;SDS011;63105;46.158;14.604;2023-09-19T14:22:46;1.92;;;0.90;;
46288;SDS011;63105;46.158;14.604;2023-09-19T14:25:12;3.83;;;0.90;;
46288;SDS011;63105;46.158;14.604;2023-09-19T14:27:37;2.45;;;0.93;;
46288;SDS011;63105;46.158;14.604;2023-09-19T14:30:04;2.25;;;1.00;;
46288;SDS011;63105;46.158;14.604;2023-09-19T14:32:29;2.60;;;1.05;;
46288;SDS011;63105;46.158;14.604;2023-09-19T14:34:54;2.05;;;0.80;;
46288;SDS011;63105;46.158;14.604;2023-09-19T14:37:20;1.90;;;0.90;;
46288;SDS011;63105;46.158;14.604;2023-09-19T14:39:48;3.30;;;0.90;;
46288;SDS011;63105;46.158;14.604;2023-09-19T14:42:13;2.27;;;0.97;;
46288;SDS011;63105;46.158;14.604;2023-09-19T14:44:42;2.55;;;1.10;;
46288;SDS011;63105;46.158;14.604;2023-09-19T14:47:07;2.38;;;1.08;;
46288;SDS011;63105;46.158;14.604;2023-09-19T14:49:33;2.15;;;0.80;;
46288;SDS011;63105;46.158;14.604;2023-09-19T14:51:58;2.85;;;0.90;;
46288;SDS011;63105;46.158;14.604;2023-09-19T14:54:24;2.20;;;0.90;;
46288;SDS011;63105;46.158;14.604;2023-09-19T14:56:49;1.98;;;0.82;;
46288;SDS011;63105;46.158;14.604;2023-09-19T14:59:19;2.38;;;0.95;;
46288;SDS011;63105;46.158;14.604;2023-09-19T15:01:45;2.40;;;1.00;;
46288;SDS011;63105;46.158;14.604;2023-09-19T15:04:10;2.85;;;1.10;;
46288;SDS011;63105;46.158;14.604;2023-09-19T15:06:35;2.35;;;1.00;;
46288;SDS011;63105;46.158;14.604;2023-09-19T15:09:01;2.00;;;0.88;;
46288;SDS011;63105;46.158;14.604;2023-09-19T15:11:26;1.60;;;0.80;;
46288;SDS011;63105;46.158;14.604;2023-09-19T15:13:52;2.17;;;0.90;;
46288;SDS011;63105;46.158;14.604;2023-09-19T15:16:19;3.70;;;0.90;;
46288;SDS011;63105;46.158;14.604;2023-09-19T15:18:44;3.55;;;0.93;;
46288;SDS011;63105;46.158;14.604;2023-09-19T15:21:12;3.25;;;0.90;;
46288;SDS011;63105;46.158;14.604;2023-09-19T15:23:39;2.42;;;0.90;;
46288;SDS011;63105;46.158;14.604;2023-09-19T15:26:05;2.08;;;0.70;;
46288;SDS011;63105;46.158;14.604;2023-09-19T15:28:30;3.00;;;0.73;;
46288;SDS011;63105;46.158;14.604;2023-09-19T15:31:17;2.13;;;0.80;;
46288;SDS011;63105;46.158;14.604;2023-09-19T15:33:42;1.25;;;0.65;;